Terminal Aerodrome Forecast
Issued by NWS Denver/Boulder, CO

Home | Current Version | Previous Version | Text Only | Print | Product List | Glossary On
Versions: 1 2 3 4 5 6 7 8 9 10 11 12 13 14 15 16 17 18 19 20 21 22 23 24 25 26 27 28 29 30 31 32 33 34 35 36 37 38 39 40 41 42 43 44
000
FTUS45 KBOU 220538
TAFDEN
TAF
KDEN 220538Z 2206/2312 18010KT P6SM FEW140 BKN220
     FM220800 21011KT P6SM FEW150 BKN220
     FM221500 VRB05KT P6SM FEW140 SCT220
     FM221800 09006KT P6SM FEW090 SCT220
     FM222200 13009KT P6SM SCT090 SCT140 BKN220
     FM230400 19008KT P6SM SCT140 BKN220=

USA.gov is the U.S. government's official web portal to all federal, state and local government web resources and services.